createdAt,value
2022-12-04T00:00:38.664Z,-21.05
2022-12-04T00:01:41.695Z,-20.73
2022-12-04T00:02:41.683Z,-20.77
2022-12-04T00:03:38.622Z,-20.58
2022-12-04T00:04:38.667Z,-20.55
2022-12-04T00:05:38.585Z,-20.58
2022-12-04T00:06:38.585Z,-20.11
2022-12-04T00:07:38.638Z,-20.54
2022-12-04T00:08:38.553Z,-20.33
2022-12-04T00:09:38.535Z,-20.58
2022-12-04T00:10:38.526Z,-20.80
2022-12-04T00:11:38.509Z,-19.70
2022-12-04T00:12:38.489Z,-20.58
2022-12-04T00:13:38.515Z,-20.58
2022-12-04T00:15:08.060Z,-20.22
2022-12-04T00:15:39.477Z,-19.87
2022-12-04T00:16:38.516Z,-19.59
2022-12-04T00:17:38.499Z,-19.73
2022-12-04T00:18:38.425Z,-19.91
2022-12-04T00:19:38.401Z,-19.65
2022-12-04T00:20:38.398Z,-18.97
2022-12-04T00:21:41.377Z,-19.69
2022-12-04T00:22:41.398Z,-20.07
2022-12-04T00:23:38.357Z,-20.39
2022-12-04T00:24:38.335Z,-20.14
2022-12-04T00:25:41.292Z,-20.14
2022-12-04T00:26:38.301Z,-20.28
2022-12-04T00:27:38.326Z,-19.62
2022-12-04T00:28:38.280Z,-19.57
2022-12-04T00:29:38.262Z,-19.64
2022-12-04T00:30:38.288Z,-19.73
2022-12-04T00:31:38.340Z,-19.81
2022-12-04T00:32:38.279Z,-19.67
2022-12-04T00:33:38.218Z,-19.40
2022-12-04T00:34:38.205Z,-19.70
2022-12-04T00:35:38.191Z,-19.73
2022-12-04T00:36:38.170Z,-20.11
2022-12-04T00:37:38.166Z,-19.67
2022-12-04T00:38:38.171Z,-20.18
2022-12-04T00:39:38.131Z,-20.15
2022-12-04T00:40:38.121Z,-20.41
2022-12-04T00:41:41.102Z,-20.31
2022-12-04T00:42:41.092Z,-20.25
2022-12-04T00:43:38.122Z,-20.73
2022-12-04T00:44:38.062Z,-20.47
2022-12-04T00:45:38.082Z,-20.23
2022-12-04T00:46:38.034Z,-20.48
2022-12-04T00:47:38.024Z,-21.07
2022-12-04T00:48:38.016Z,-20.87
2022-12-04T00:49:38.019Z,-21.03
2022-12-04T00:50:37.990Z,-21.22
2022-12-04T00:51:37.964Z,-20.88
2022-12-04T00:52:37.953Z,-20.36
2022-12-04T00:53:37.955Z,-20.45
2022-12-04T00:54:37.952Z,-20.08
2022-12-04T00:55:37.904Z,-20.16
2022-12-04T00:56:37.906Z,-20.52
2022-12-04T00:57:37.884Z,-20.57
2022-12-04T00:58:37.922Z,-20.78
2022-12-04T00:59:37.853Z,-20.75
2022-12-04T01:00:37.935Z,-20.53
2022-12-04T01:01:40.918Z,-20.61
2022-12-04T01:02:40.916Z,-21.07
2022-12-04T01:03:37.802Z,-21.08
2022-12-04T01:04:37.835Z,-20.90
2022-12-04T01:05:37.791Z,-20.74
2022-12-04T01:06:37.755Z,-21.22
2022-12-04T01:07:37.827Z,-21.54
2022-12-04T01:08:37.733Z,-21.59
2022-12-04T01:09:37.724Z,-21.27
2022-12-04T01:10:37.765Z,-21.11
2022-12-04T01:11:37.696Z,-20.87
2022-12-04T01:12:37.676Z,-21.23
2022-12-04T01:13:37.676Z,-21.02
2022-12-04T01:14:37.655Z,-20.79
2022-12-04T01:15:37.641Z,-21.19
2022-12-04T01:16:37.729Z,-21.22
2022-12-04T01:17:37.608Z,-21.55
2022-12-04T01:18:37.587Z,-21.82
2022-12-04T01:19:37.577Z,-21.93
2022-12-04T01:20:37.578Z,-21.76
2022-12-04T01:21:40.596Z,-21.43
2022-12-04T01:22:40.546Z,-20.90
2022-12-04T01:23:37.527Z,-21.01
2022-12-04T01:24:37.516Z,-21.29
2022-12-04T01:25:37.498Z,-21.64
2022-12-04T01:26:37.488Z,-22.31
2022-12-04T01:27:37.500Z,-22.34
2022-12-04T01:28:37.455Z,-22.43
2022-12-04T01:29:37.449Z,-22.14
2022-12-04T01:30:37.438Z,-21.91
2022-12-04T01:31:37.535Z,-21.45
2022-12-04T01:32:37.458Z,-21.83
2022-12-04T01:33:37.390Z,-22.01
2022-12-04T01:34:37.375Z,-22.51
2022-12-04T01:35:37.365Z,-22.55
2022-12-04T01:36:37.359Z,-21.99
2022-12-04T01:37:37.342Z,-22.15
2022-12-04T01:38:37.347Z,-22.37
2022-12-04T01:39:37.360Z,-22.10
2022-12-04T01:40:37.297Z,-22.17
2022-12-04T01:41:40.279Z,-22.22
2022-12-04T01:42:40.282Z,-22.00
2022-12-04T01:43:37.249Z,-21.97
2022-12-04T01:44:37.243Z,-22.40
2022-12-04T01:45:37.337Z,-22.70
2022-12-04T01:46:37.215Z,-22.07
2022-12-04T01:47:37.200Z,-22.06
2022-12-04T01:48:37.190Z,-22.42
2022-12-04T01:49:37.204Z,-22.50
2022-12-04T01:50:37.154Z,-22.70
2022-12-04T01:51:37.142Z,-22.69
2022-12-04T01:52:37.141Z,-22.68
2022-12-04T01:53:37.141Z,-22.95
2022-12-04T01:54:37.111Z,-24.06
2022-12-04T01:55:37.103Z,-23.16
2022-12-04T01:56:37.093Z,-22.97
2022-12-04T01:57:37.051Z,-23.27
2022-12-04T01:58:37.080Z,-22.78
2022-12-04T01:59:37.054Z,-22.82
2022-12-04T02:00:37.042Z,-22.79
2022-12-04T02:01:40.040Z,-22.87
2022-12-04T02:02:40.120Z,-22.97
2022-12-04T02:03:36.983Z,-23.14
2022-12-04T02:04:36.962Z,-23.04
2022-12-04T02:05:37.004Z,-23.48
2022-12-04T02:06:36.943Z,-24.02
2022-12-04T02:07:36.969Z,-23.54
2022-12-04T02:08:36.912Z,-23.47
2022-12-04T02:09:36.893Z,-23.57
2022-12-04T02:10:36.893Z,-23.60
2022-12-04T02:11:36.901Z,-23.43
2022-12-04T02:12:36.864Z,-22.84
2022-12-04T02:13:36.844Z,-23.25
2022-12-04T02:14:36.834Z,-23.46
2022-12-04T02:15:36.833Z,-23.09
2022-12-04T02:16:36.961Z,-23.31
2022-12-04T02:17:36.794Z,-22.83
2022-12-04T02:18:36.785Z,-23.39
2022-12-04T02:19:36.765Z,-24.24
2022-12-04T02:20:36.768Z,-23.93
2022-12-04T02:21:39.800Z,-24.02
2022-12-04T02:22:39.743Z,-23.88
2022-12-04T02:23:36.724Z,-23.48
2022-12-04T02:24:36.705Z,-23.99
2022-12-04T02:25:36.692Z,-24.34
2022-12-04T02:26:36.676Z,-23.80
2022-12-04T02:27:36.684Z,-23.90
2022-12-04T02:28:36.664Z,-24.37
2022-12-04T02:29:36.636Z,-24.09
2022-12-04T02:30:36.672Z,-24.11
2022-12-04T02:31:36.605Z,-24.05
2022-12-04T02:32:36.599Z,-24.25
2022-12-04T02:33:36.607Z,-24.09
2022-12-04T02:34:36.576Z,-24.07
2022-12-04T02:35:36.554Z,-24.36
2022-12-04T02:36:36.534Z,-24.53
2022-12-04T02:37:36.518Z,-25.00
2022-12-04T02:38:36.543Z,-24.52
2022-12-04T02:39:36.496Z,-24.91
2022-12-04T02:40:36.515Z,-24.34
2022-12-04T02:41:39.458Z,-24.72
2022-12-04T02:42:39.469Z,-24.66
2022-12-04T02:43:36.448Z,-24.32
2022-12-04T02:44:36.431Z,-23.57
2022-12-04T02:45:36.481Z,-23.96
2022-12-04T02:46:36.517Z,-23.89
2022-12-04T02:47:36.388Z,-23.78
2022-12-04T02:48:36.377Z,-23.96
2022-12-04T02:49:36.357Z,-23.67
2022-12-04T02:50:36.377Z,-24.22
2022-12-04T02:51:36.359Z,-24.81
2022-12-04T02:52:36.330Z,-25.31
2022-12-04T02:53:36.310Z,-24.93
2022-12-04T02:54:36.292Z,-24.72
2022-12-04T02:55:36.304Z,-24.34
2022-12-04T02:56:36.289Z,-24.60
2022-12-04T02:57:36.249Z,-24.10
2022-12-04T02:58:36.245Z,-23.72
2022-12-04T02:59:36.222Z,-24.25
2022-12-04T03:00:36.211Z,-24.21
2022-12-04T03:01:39.349Z,-24.40
2022-12-04T03:02:39.229Z,-24.85
2022-12-04T03:03:36.162Z,-24.34
2022-12-04T03:04:36.173Z,-24.08
2022-12-04T03:05:36.144Z,-24.66
2022-12-04T03:06:36.122Z,-24.90
2022-12-04T03:07:36.195Z,-24.83
2022-12-04T03:08:36.112Z,-24.11
2022-12-04T03:09:36.093Z,-24.11
2022-12-04T03:10:43.597Z,-24.38
2022-12-04T03:11:36.058Z,-24.69
2022-12-04T03:12:36.038Z,-24.54
2022-12-04T03:13:36.058Z,-23.69
2022-12-04T03:14:36.028Z,-23.93
2022-12-04T03:15:36.010Z,-23.94
2022-12-04T03:16:36.043Z,-24.02
2022-12-04T03:17:35.977Z,-24.29
2022-12-04T03:18:35.998Z,-24.23
2022-12-04T03:19:35.959Z,-24.33
2022-12-04T03:20:35.943Z,-24.49
2022-12-04T03:21:38.920Z,-24.74
2022-12-04T03:22:38.927Z,-24.76
2022-12-04T03:23:35.923Z,-25.30
2022-12-04T03:24:35.916Z,-25.69
2022-12-04T03:25:35.868Z,-25.38
2022-12-04T03:26:35.908Z,-24.95
2022-12-04T03:27:35.848Z,-24.74
2022-12-04T03:28:35.846Z,-24.93
2022-12-04T03:29:35.833Z,-24.89
2022-12-04T03:30:35.862Z,-25.27
2022-12-04T03:31:35.791Z,-24.86
2022-12-04T03:32:35.768Z,-24.85
2022-12-04T03:33:35.772Z,-24.75
2022-12-04T03:34:35.780Z,-25.16
2022-12-04T03:35:35.739Z,-25.36
2022-12-04T03:36:35.729Z,-25.16
2022-12-04T03:37:35.700Z,-25.51
2022-12-04T03:38:35.683Z,-25.68
2022-12-04T03:39:35.700Z,-25.72
2022-12-04T03:40:35.660Z,-25.77
2022-12-04T03:41:38.698Z,-25.47
2022-12-04T03:42:38.650Z,-25.36
2022-12-04T03:43:35.620Z,-25.55
2022-12-04T03:44:35.650Z,-25.92
2022-12-04T03:45:35.590Z,-26.15
2022-12-04T03:46:35.638Z,-25.49
2022-12-04T03:47:35.591Z,-25.67
2022-12-04T03:48:35.554Z,-25.90
2022-12-04T03:49:35.541Z,-25.54
2022-12-04T03:50:35.533Z,-25.44
2022-12-04T03:51:35.521Z,-25.43
2022-12-04T03:52:35.542Z,-25.62
2022-12-04T03:53:35.475Z,-25.98
2022-12-04T03:54:35.475Z,-25.99
2022-12-04T03:55:35.452Z,-25.92
2022-12-04T03:56:35.441Z,-26.42
2022-12-04T03:57:35.423Z,-26.18
2022-12-04T03:58:35.444Z,-26.17
2022-12-04T03:59:35.392Z,-25.66
2022-12-04T04:00:35.393Z,-26.27
2022-12-04T04:01:38.413Z,-26.49
2022-12-04T04:02:38.441Z,-26.49
2022-12-04T04:03:35.395Z,-26.67
2022-12-04T04:04:35.342Z,-26.56
2022-12-04T04:05:35.325Z,-26.21
2022-12-04T04:06:35.311Z,-26.47
2022-12-04T04:07:35.997Z,-26.65
2022-12-04T04:08:35.275Z,-26.78
2022-12-04T04:09:35.286Z,-27.19
2022-12-04T04:10:35.266Z,-26.98
2022-12-04T04:11:35.243Z,-26.87
2022-12-04T04:12:35.238Z,-27.09
2022-12-04T04:13:35.234Z,-26.86
2022-12-04T04:14:35.204Z,-26.73
2022-12-04T04:15:35.272Z,-26.96
2022-12-04T04:16:35.166Z,-27.18
2022-12-04T04:17:38.752Z,-27.23
2022-12-04T04:18:35.151Z,-27.28
2022-12-04T04:19:35.127Z,-27.56
2022-12-04T04:20:35.136Z,-27.56
2022-12-04T04:21:38.123Z,-27.02
2022-12-04T04:22:38.099Z,-27.07
2022-12-04T04:23:35.067Z,-27.00
2022-12-04T04:24:35.056Z,-26.56
2022-12-04T04:25:35.096Z,-26.75
2022-12-04T04:26:35.030Z,-26.86
2022-12-04T04:27:35.007Z,-27.00
2022-12-04T04:28:35.015Z,-27.09
2022-12-04T04:29:34.997Z,-26.99
2022-12-04T04:30:34.986Z,-27.07
2022-12-04T04:31:35.055Z,-27.24
2022-12-04T04:32:34.964Z,-27.57
2022-12-04T04:33:34.931Z,-27.99
2022-12-04T04:34:34.943Z,-27.12
2022-12-04T04:35:34.909Z,-27.35
2022-12-04T04:36:34.957Z,-27.62
2022-12-04T04:37:34.889Z,-27.73
2022-12-04T04:38:34.869Z,-27.78
2022-12-04T04:39:34.866Z,-28.12
2022-12-04T04:40:34.844Z,-27.65
2022-12-04T04:41:37.869Z,-27.42
2022-12-04T04:42:37.829Z,-27.49
2022-12-04T04:43:34.807Z,-27.50
2022-12-04T04:44:34.785Z,-27.39
2022-12-04T04:45:34.771Z,-27.44
2022-12-04T04:46:34.764Z,-27.59
2022-12-04T04:47:34.778Z,-27.49
2022-12-04T04:48:34.729Z,-27.59
2022-12-04T04:49:34.724Z,-27.38
2022-12-04T04:50:34.712Z,-27.17
2022-12-04T04:51:34.687Z,-27.27
2022-12-04T04:52:34.700Z,-27.26
2022-12-04T04:53:34.652Z,-27.40
2022-12-04T04:54:34.649Z,-27.50
2022-12-04T04:55:34.700Z,-27.90
2022-12-04T04:56:34.611Z,-28.19
2022-12-04T04:57:34.611Z,-28.09
2022-12-04T04:58:34.588Z,-27.89
2022-12-04T04:59:34.667Z,-28.16
2022-12-04T05:00:34.572Z,-28.51
2022-12-04T05:01:37.632Z,-28.11
2022-12-04T05:02:37.590Z,-27.73
2022-12-04T05:03:34.549Z,-27.59
2022-12-04T05:04:34.511Z,-27.42
2022-12-04T05:05:34.503Z,-27.58
2022-12-04T05:06:34.504Z,-27.70
2022-12-04T05:07:34.534Z,-27.93
2022-12-04T05:08:34.446Z,-27.61
2022-12-04T05:09:38.210Z,-27.83
2022-12-04T05:10:35.436Z,-27.94
2022-12-04T05:11:34.401Z,-27.44
2022-12-04T05:12:34.463Z,-27.95
2022-12-04T05:13:34.375Z,-28.33
2022-12-04T05:14:34.374Z,-28.37
2022-12-04T05:15:34.353Z,-28.33
2022-12-04T05:16:34.401Z,-28.49
2022-12-04T05:17:34.333Z,-28.44
2022-12-04T05:18:34.374Z,-28.40
2022-12-04T05:19:34.307Z,-28.69
2022-12-04T05:20:34.303Z,-28.64
2022-12-04T05:21:37.265Z,-28.91
2022-12-04T05:22:37.273Z,-28.07
2022-12-04T05:23:34.255Z,-28.60
2022-12-04T05:24:34.276Z,-28.15
2022-12-04T05:25:34.205Z,-27.59
2022-12-04T05:26:34.208Z,-28.23
2022-12-04T05:27:34.183Z,-28.28
2022-12-04T05:28:34.185Z,-28.65
2022-12-04T05:29:35.942Z,-28.12
2022-12-04T05:30:34.176Z,-28.26
2022-12-04T05:31:34.197Z,-28.81
2022-12-04T05:32:34.116Z,-28.12
2022-12-04T05:33:34.156Z,-28.87
2022-12-04T05:34:34.102Z,-29.40
2022-12-04T05:35:34.077Z,-28.88
2022-12-04T05:36:34.067Z,-28.93
2022-12-04T05:37:34.054Z,-28.33
2022-12-04T05:38:34.043Z,-28.89
2022-12-04T05:39:34.047Z,-29.25
2022-12-04T05:40:34.024Z,-28.73
2022-12-04T05:41:37.005Z,-28.35
2022-12-04T05:42:36.997Z,-28.63
2022-12-04T05:43:33.967Z,-29.16
2022-12-04T05:44:33.991Z,-29.01
2022-12-04T05:45:33.936Z,-28.91
2022-12-04T05:46:33.945Z,-29.11
2022-12-04T05:47:33.914Z,-28.85
2022-12-04T05:48:33.922Z,-29.02
2022-12-04T05:49:33.888Z,-29.22
2022-12-04T05:50:33.903Z,-29.60
2022-12-04T05:51:33.855Z,-29.75
2022-12-04T05:52:33.878Z,-29.74
2022-12-04T05:53:33.831Z,-30.32
2022-12-04T05:54:33.839Z,-29.91
2022-12-04T05:55:33.859Z,-30.29
2022-12-04T05:56:33.792Z,-30.24
2022-12-04T05:57:33.779Z,-29.86
2022-12-04T05:58:33.763Z,-29.35
2022-12-04T05:59:33.761Z,-29.35
2022-12-04T06:00:33.758Z,-29.58
2022-12-04T06:01:36.802Z,-29.54
2022-12-04T06:02:36.822Z,-29.50
2022-12-04T06:03:33.771Z,-29.81
2022-12-04T06:04:33.688Z,-29.66
2022-12-04T06:05:33.679Z,-29.95
2022-12-04T06:06:33.711Z,-30.09
2022-12-04T06:07:33.699Z,-29.07
2022-12-04T06:08:33.639Z,-29.10
2022-12-04T06:09:33.629Z,-29.37
2022-12-04T06:10:33.612Z,-29.06
2022-12-04T06:11:33.595Z,-29.40
2022-12-04T06:12:33.593Z,-30.00
2022-12-04T06:13:33.569Z,-29.64
2022-12-04T06:14:39.092Z,-29.16
2022-12-04T06:15:34.530Z,-28.99
2022-12-04T06:16:33.609Z,-29.25
2022-12-04T06:17:33.504Z,-29.62
2022-12-04T06:18:33.494Z,-29.12
2022-12-04T06:19:33.485Z,-29.10
2022-12-04T06:20:33.553Z,-29.15
2022-12-04T06:21:36.507Z,-29.37
2022-12-04T06:22:36.463Z,-29.30
2022-12-04T06:23:33.423Z,-29.56
2022-12-04T06:24:33.406Z,-29.62
2022-12-04T06:25:33.396Z,-29.67
2022-12-04T06:26:33.385Z,-28.83
2022-12-04T06:27:33.421Z,-29.08
2022-12-04T06:28:33.404Z,-29.84
2022-12-04T06:29:33.354Z,-29.48
2022-12-04T06:30:33.346Z,-28.99
2022-12-04T06:31:33.402Z,-29.43
2022-12-04T06:32:33.316Z,-29.13
2022-12-04T06:33:33.316Z,-28.74
2022-12-04T06:34:33.285Z,-28.71
2022-12-04T06:35:33.265Z,-28.96
2022-12-04T06:36:33.255Z,-28.92
2022-12-04T06:37:33.238Z,-28.83
2022-12-04T06:38:33.255Z,-29.08
2022-12-04T06:39:33.217Z,-28.74
2022-12-04T06:40:33.256Z,-28.76
2022-12-04T06:41:36.177Z,-28.25
2022-12-04T06:42:36.176Z,-28.45
2022-12-04T06:43:33.151Z,-29.41
2022-12-04T06:44:33.126Z,-29.37
2022-12-04T06:45:33.164Z,-28.40
2022-12-04T06:46:33.147Z,-29.29
2022-12-04T06:47:33.100Z,-28.94
2022-12-04T06:48:33.077Z,-29.30
2022-12-04T06:49:33.075Z,-29.12
2022-12-04T06:50:33.060Z,-28.71
2022-12-04T06:51:33.076Z,-28.77
2022-12-04T06:52:33.021Z,-27.55
2022-12-04T06:53:33.007Z,-27.88
2022-12-04T06:54:33.041Z,-28.21
2022-12-04T06:55:32.980Z,-28.99
2022-12-04T06:56:33.008Z,-28.95
2022-12-04T06:57:32.958Z,-28.61
2022-12-04T06:58:32.939Z,-28.44
2022-12-04T06:59:32.930Z,-28.30
2022-12-04T07:00:32.920Z,-28.13
2022-12-04T07:01:36.052Z,-28.69
2022-12-04T07:02:36.022Z,-28.72
2022-12-04T07:03:32.888Z,-28.85
2022-12-04T07:04:32.871Z,-28.28
2022-12-04T07:05:32.851Z,-28.11
2022-12-04T07:06:32.861Z,-28.23
2022-12-04T07:07:32.880Z,-28.25
2022-12-04T07:08:32.840Z,-28.17
2022-12-04T07:09:32.810Z,-28.21
2022-12-04T07:10:32.811Z,-28.43
2022-12-04T07:11:32.800Z,-27.97
2022-12-04T07:12:32.752Z,-28.38
2022-12-04T07:13:32.754Z,-28.10
2022-12-04T07:14:32.780Z,-28.50
2022-12-04T07:15:32.721Z,-28.63
2022-12-04T07:16:36.866Z,-28.07
2022-12-04T07:17:33.693Z,-28.39
2022-12-04T07:18:32.680Z,-28.98
2022-12-04T07:19:32.660Z,-28.72
2022-12-04T07:20:32.713Z,-29.02
2022-12-04T07:21:35.640Z,-28.68
2022-12-04T07:22:35.632Z,-28.54
2022-12-04T07:23:32.604Z,-28.67
2022-12-04T07:24:32.592Z,-28.12
2022-12-04T07:25:32.582Z,-28.80
2022-12-04T07:26:32.624Z,-28.99
2022-12-04T07:27:32.554Z,-29.00
2022-12-04T07:28:32.535Z,-29.12
2022-12-04T07:29:32.525Z,-29.70
2022-12-04T07:30:32.520Z,-29.19
2022-12-04T07:31:32.560Z,-29.86
2022-12-04T07:32:32.504Z,-29.34
2022-12-04T07:33:32.473Z,-29.51
2022-12-04T07:34:32.450Z,-29.68
2022-12-04T07:35:32.446Z,-29.23
2022-12-04T07:36:32.426Z,-29.56
2022-12-04T07:37:32.441Z,-29.20
2022-12-04T07:38:32.396Z,-29.07
2022-12-04T07:39:32.436Z,-29.31
2022-12-04T07:40:32.374Z,-29.26
2022-12-04T07:41:35.356Z,-28.79
2022-12-04T07:42:35.358Z,-29.29
2022-12-04T07:43:32.335Z,-29.05
2022-12-04T07:44:32.325Z,-29.03
2022-12-04T07:45:32.435Z,-29.63
2022-12-04T07:46:32.379Z,-29.29
2022-12-04T07:47:32.277Z,-29.76
2022-12-04T07:48:33.569Z,-29.66
2022-12-04T07:49:32.247Z,-29.97
2022-12-04T07:50:32.236Z,-30.02
2022-12-04T07:51:32.262Z,-29.44
2022-12-04T07:52:32.198Z,-29.33
2022-12-04T07:53:32.186Z,-30.01
2022-12-04T07:54:32.179Z,-29.82
2022-12-04T07:55:32.220Z,-29.29
2022-12-04T07:56:32.150Z,-29.37
2022-12-04T07:57:32.139Z,-29.71
2022-12-04T07:58:32.117Z,-29.74
2022-12-04T07:59:32.107Z,-29.96
2022-12-04T08:00:32.097Z,-29.73
2022-12-04T08:01:35.200Z,-29.75
2022-12-04T08:02:35.097Z,-29.51
2022-12-04T08:03:32.068Z,-29.13
2022-12-04T08:04:32.059Z,-29.25
2022-12-04T08:05:32.030Z,-29.51
2022-12-04T08:06:32.019Z,-29.92
2022-12-04T08:07:32.084Z,-30.74
2022-12-04T08:08:31.981Z,-30.67
2022-12-04T08:09:31.969Z,-30.51
2022-12-04T08:10:31.967Z,-30.65
2022-12-04T08:11:31.969Z,-30.21
2022-12-04T08:12:31.944Z,-30.15
2022-12-04T08:13:31.919Z,-29.92
2022-12-04T08:14:31.902Z,-29.88
2022-12-04T08:15:31.889Z,-29.32
2022-12-04T08:16:31.978Z,-29.62
2022-12-04T08:17:31.865Z,-29.99
2022-12-04T08:18:31.849Z,-30.63
2022-12-04T08:19:31.841Z,-30.52
2022-12-04T08:20:31.831Z,-30.69
2022-12-04T08:21:34.844Z,-30.45
2022-12-04T08:22:34.827Z,-29.88
2022-12-04T08:23:31.781Z,-30.66
2022-12-04T08:24:31.762Z,-30.95
2022-12-04T08:25:31.752Z,-30.36
2022-12-04T08:26:31.786Z,-30.29
2022-12-04T08:27:31.729Z,-30.42
2022-12-04T08:28:31.711Z,-30.59
2022-12-04T08:29:31.698Z,-30.67
2022-12-04T08:30:31.742Z,-30.60
2022-12-04T08:31:31.760Z,-31.06
2022-12-04T08:32:31.862Z,-31.50
2022-12-04T08:33:31.652Z,-30.95
2022-12-04T08:34:31.630Z,-31.37
2022-12-04T08:35:31.623Z,-31.51
2022-12-04T08:36:31.602Z,-31.70
2022-12-04T08:37:31.592Z,-32.19
2022-12-04T08:38:31.637Z,-31.91
2022-12-04T08:39:31.575Z,-31.51
2022-12-04T08:40:31.555Z,-31.82
2022-12-04T08:41:34.540Z,-31.78
2022-12-04T08:42:34.546Z,-32.06
2022-12-04T08:43:31.542Z,-32.06
2022-12-04T08:44:31.531Z,-32.43
2022-12-04T08:45:31.494Z,-32.50
2022-12-04T08:46:31.574Z,-31.93
2022-12-04T08:47:31.473Z,-32.02
2022-12-04T08:48:31.456Z,-32.58
2022-12-04T08:49:31.463Z,-32.68
2022-12-04T08:50:31.438Z,-32.81
2022-12-04T08:51:31.415Z,-33.01
2022-12-04T08:52:31.385Z,-33.61
2022-12-04T08:53:31.384Z,-34.06
2022-12-04T08:54:35.920Z,-33.91
2022-12-04T08:55:31.404Z,-33.85
2022-12-04T08:56:31.351Z,-33.35
2022-12-04T08:57:31.326Z,-33.20
2022-12-04T08:58:31.365Z,-33.86
2022-12-04T08:59:31.327Z,-33.81
2022-12-04T09:00:31.293Z,-33.91
2022-12-04T09:01:34.351Z,-33.86
2022-12-04T09:02:34.276Z,-34.02
2022-12-04T09:03:31.335Z,-34.54
2022-12-04T09:04:31.353Z,-34.18
2022-12-04T09:05:31.215Z,-33.73
2022-12-04T09:06:31.206Z,-33.96
2022-12-04T09:07:31.234Z,-34.85
2022-12-04T09:08:31.177Z,-35.38
2022-12-04T09:09:31.156Z,-35.35
2022-12-04T09:10:31.196Z,-35.51
2022-12-04T09:11:38.648Z,-35.77
2022-12-04T09:12:31.124Z,-35.17
2022-12-04T09:13:31.113Z,-35.46
2022-12-04T09:14:31.093Z,-35.21
2022-12-04T09:15:31.199Z,-35.90
2022-12-04T09:16:31.193Z,-34.97
2022-12-04T09:17:31.050Z,-35.66
2022-12-04T09:18:31.042Z,-35.75
2022-12-04T09:19:31.025Z,-35.92
2022-12-04T09:20:31.024Z,-35.93
2022-12-04T09:21:34.034Z,-36.25
2022-12-04T09:22:57.831Z,-35.30
2022-12-04T09:23:31.972Z,-36.13
2022-12-04T09:24:30.981Z,-36.09
2022-12-04T09:25:30.991Z,-36.64
2022-12-04T09:26:30.977Z,-36.22
2022-12-04T09:27:30.944Z,-36.30
2022-12-04T09:28:30.916Z,-36.81
2022-12-04T09:29:30.900Z,-36.95
2022-12-04T09:30:30.874Z,-36.90
2022-12-04T09:31:30.971Z,-36.55
2022-12-04T09:32:30.877Z,-36.38
2022-12-04T09:33:30.834Z,-37.29
2022-12-04T09:34:30.854Z,-37.10
2022-12-04T09:35:30.804Z,-37.25
2022-12-04T09:36:30.826Z,-37.62
2022-12-04T09:37:30.819Z,-37.83
2022-12-04T09:38:30.768Z,-38.68
2022-12-04T09:39:30.794Z,-39.44
2022-12-04T09:40:37.258Z,-39.15
2022-12-04T09:41:34.775Z,-39.06
2022-12-04T09:42:33.735Z,-39.79
2022-12-04T09:43:30.727Z,-39.36
2022-12-04T09:44:30.706Z,-39.66
2022-12-04T09:45:30.682Z,-40.20
2022-12-04T09:46:30.835Z,-39.97
2022-12-04T09:47:30.773Z,-38.35
2022-12-04T09:48:30.642Z,-38.82
2022-12-04T09:49:30.647Z,-39.56
2022-12-04T09:50:30.618Z,-40.07
2022-12-04T09:51:30.606Z,-38.89
2022-12-04T09:52:30.608Z,-39.94
2022-12-04T09:53:30.582Z,-39.21
2022-12-04T09:54:30.590Z,-39.47
2022-12-04T09:55:30.554Z,-39.49
2022-12-04T09:56:30.549Z,-39.34
2022-12-04T09:57:30.559Z,-39.61
2022-12-04T09:58:30.516Z,-38.78
2022-12-04T09:59:30.499Z,-39.61
2022-12-04T10:00:30.491Z,-40.35
2022-12-04T10:01:33.491Z,-40.05
2022-12-04T10:02:33.718Z,-40.30
2022-12-04T10:03:30.568Z,-40.67
2022-12-04T10:04:30.441Z,-42.25
2022-12-04T10:05:30.439Z,-42.69
2022-12-04T10:06:30.414Z,-41.14
2022-12-04T10:07:30.448Z,-41.56
2022-12-04T10:08:30.410Z,-41.89
2022-12-04T10:09:30.405Z,-41.61
2022-12-04T10:10:30.356Z,-41.59
2022-12-04T10:11:32.803Z,-41.66
2022-12-04T10:12:30.329Z,-41.23
2022-12-04T10:13:30.313Z,-41.68
2022-12-04T10:14:30.341Z,-42.55
2022-12-04T10:15:30.281Z,-41.85
2022-12-04T10:16:30.364Z,-41.28
2022-12-04T10:17:32.968Z,-41.37
2022-12-04T10:18:30.245Z,-42.74
2022-12-04T10:19:30.281Z,-42.12
2022-12-04T10:20:30.222Z,-42.34
2022-12-04T10:21:33.232Z,-42.69
2022-12-04T10:22:33.224Z,-42.36
2022-12-04T10:23:30.182Z,-42.50
2022-12-04T10:24:30.170Z,-42.02
2022-12-04T10:25:30.173Z,-42.04
2022-12-04T10:26:30.142Z,-43.14
2022-12-04T10:27:30.130Z,-43.25
2022-12-04T10:28:30.157Z,-44.26
2022-12-04T10:29:30.104Z,-44.00
2022-12-04T10:30:30.146Z,-43.53
2022-12-04T10:31:30.143Z,-43.64
2022-12-04T10:32:30.064Z,-44.70
2022-12-04T10:33:30.055Z,-44.48
2022-12-04T10:34:30.044Z,-44.80
2022-12-04T10:35:30.072Z,-44.69
2022-12-04T10:36:30.021Z,-45.28
2022-12-04T10:37:29.994Z,-45.34
2022-12-04T10:38:29.994Z,-45.63
2022-12-04T10:39:29.966Z,-45.23
2022-12-04T10:40:29.964Z,-44.47
2022-12-04T10:41:32.975Z,-44.50
2022-12-04T10:42:32.957Z,-44.86
2022-12-04T10:43:29.916Z,-44.36
2022-12-04T10:44:29.909Z,-45.18
2022-12-04T10:45:29.936Z,-46.36
2022-12-04T10:46:29.929Z,-47.30
2022-12-04T10:47:29.861Z,-46.77
2022-12-04T10:48:29.849Z,-45.76
2022-12-04T10:49:29.838Z,-45.30
2022-12-04T10:50:29.828Z,-45.35
2022-12-04T10:51:29.839Z,-46.20
2022-12-04T10:52:29.805Z,-46.29
2022-12-04T10:53:29.781Z,-46.62
2022-12-04T10:54:29.790Z,-46.37
2022-12-04T10:55:29.752Z,-46.61
2022-12-04T10:56:29.780Z,-46.67
2022-12-04T10:57:29.741Z,-46.48
2022-12-04T10:58:29.730Z,-46.40
2022-12-04T10:59:29.700Z,-46.37
2022-12-04T11:00:29.692Z,-46.67
2022-12-04T11:01:32.809Z,-47.17
2022-12-04T11:02:32.880Z,-47.35
2022-12-04T11:03:29.769Z,-47.38
2022-12-04T11:04:29.663Z,-47.45
2022-12-04T11:05:29.630Z,-48.58
2022-12-04T11:06:29.633Z,-48.99
2022-12-04T11:07:29.680Z,-47.89
2022-12-04T11:08:29.658Z,-47.93
2022-12-04T11:09:29.601Z,-48.83
2022-12-04T11:10:29.562Z,-48.55
2022-12-04T11:11:29.580Z,-48.53
2022-12-04T11:12:29.564Z,-48.79
2022-12-04T11:13:29.570Z,-49.48
2022-12-04T11:14:29.526Z,-49.29
2022-12-04T11:15:29.501Z,-49.37
2022-12-04T11:16:29.533Z,-50.31
2022-12-04T11:17:29.522Z,-50.77
2022-12-04T11:18:29.474Z,-50.75
2022-12-04T11:19:29.446Z,-50.11
2022-12-04T11:20:29.425Z,-50.13
2022-12-04T11:21:32.436Z,-50.48
2022-12-04T11:22:32.472Z,-51.28
2022-12-04T11:23:29.402Z,-51.07
2022-12-04T11:24:29.392Z,-50.04
2022-12-04T11:25:29.370Z,-50.99
2022-12-04T11:26:29.351Z,-51.00
2022-12-04T11:27:29.334Z,-50.89
2022-12-04T11:28:44.799Z,-51.03
2022-12-04T11:29:30.304Z,-50.86
2022-12-04T11:30:29.294Z,-50.92
2022-12-04T11:31:29.337Z,-51.23
2022-12-04T11:32:29.275Z,-50.94
2022-12-04T11:33:29.315Z,-50.85
2022-12-04T11:34:29.242Z,-51.01
2022-12-04T11:35:29.235Z,-51.05
2022-12-04T11:36:29.223Z,-51.76
2022-12-04T11:37:29.203Z,-52.18
2022-12-04T11:38:29.187Z,-51.71
2022-12-04T11:39:29.206Z,-51.36
2022-12-04T11:40:29.174Z,-51.88
2022-12-04T11:41:32.143Z,-51.97
2022-12-04T11:42:32.155Z,-51.77
2022-12-04T11:43:29.135Z,-51.86
2022-12-04T11:44:29.137Z,-51.93
2022-12-04T11:45:29.096Z,-52.07
2022-12-04T11:46:29.301Z,-52.12
2022-12-04T11:47:29.067Z,-52.06
2022-12-04T11:48:29.078Z,-52.09
2022-12-04T11:49:29.070Z,-52.09
2022-12-04T11:50:29.028Z,-51.99
2022-12-04T11:51:29.017Z,-51.90
2022-12-04T11:52:29.041Z,-52.03
2022-12-04T11:53:29.011Z,-52.90
2022-12-04T11:54:28.978Z,-52.98
2022-12-04T11:55:29.616Z,-52.51
2022-12-04T11:56:28.949Z,-52.63
2022-12-04T11:57:28.988Z,-52.54
2022-12-04T11:58:28.919Z,-52.37
2022-12-04T11:59:28.908Z,-52.43
2022-12-04T12:00:28.906Z,-52.36
2022-12-04T12:01:31.916Z,-52.79
2022-12-04T12:02:32.039Z,-52.60
2022-12-04T12:03:28.978Z,-52.14
2022-12-04T12:04:28.853Z,-53.31
2022-12-04T12:05:28.833Z,-52.82
2022-12-04T12:06:28.813Z,-52.26
2022-12-04T12:07:28.835Z,-51.88
2022-12-04T12:08:28.814Z,-51.63
2022-12-04T12:09:28.780Z,-51.68
2022-12-04T12:10:28.772Z,-51.88
2022-12-04T12:11:28.751Z,-52.93
2022-12-04T12:12:28.742Z,-52.59
2022-12-04T12:13:28.771Z,-52.96
2022-12-04T12:14:28.711Z,-52.77
2022-12-04T12:15:28.701Z,-52.75
2022-12-04T12:16:28.764Z,-53.66
2022-12-04T12:17:28.671Z,-53.60
2022-12-04T12:18:28.661Z,-53.98
2022-12-04T12:19:28.680Z,-53.07
2022-12-04T12:20:28.671Z,-53.68
2022-12-04T12:21:31.613Z,-53.65
2022-12-04T12:22:31.615Z,-53.43
2022-12-04T12:23:28.592Z,-53.32
2022-12-04T12:24:28.602Z,-53.93
2022-12-04T12:25:28.562Z,-53.69
2022-12-04T12:26:28.553Z,-53.78
2022-12-04T12:27:28.544Z,-53.55
2022-12-04T12:28:28.523Z,-54.08